McMahan, Texas
Current Conditions -  °F | °C
As of 8:48 AM on Thursday 18 Dec 2014 (Local Time) from KHYI Reporting Station
Haze Haze  
Wind Chill: 54°   Ceiling: 600
Heat Index: 54°   Visibility: 2mi
Dew Point: 50°   Wind: 8mph
Humidity: 88%   Direction: 10°N
Pressure: 30.12"   Gusts: NA
Location:  29.8789°N, 97.5317°W
Report Text: KHYI 181448Z 01007KT 2SM BR OVC006 12/10 A3012
Loading
Personal Weather Stations






























Interactive Weather Map New forecast layout! Learn more

10-Day Weather Forecast

Advertisements
Track Severe Weather on mobile